sensor_id;sensor_type;location;lat;lon;timestamp;P1;durP1;ratioP1;P2;durP2;ratioP2
25905;SDS011;13713;52.552;13.204;2023-05-27T00:01:58;49.85;;;27.48;;
25905;SDS011;13713;52.552;13.204;2023-05-27T00:04:24;49.05;;;26.92;;
25905;SDS011;13713;52.552;13.204;2023-05-27T00:06:50;48.45;;;27.98;;
25905;SDS011;13713;52.552;13.204;2023-05-27T00:09:16;47.67;;;27.58;;
25905;SDS011;13713;52.552;13.204;2023-05-27T00:11:41;45.92;;;26.77;;
25905;SDS011;13713;52.552;13.204;2023-05-27T00:14:07;47.70;;;27.88;;
25905;SDS011;13713;52.552;13.204;2023-05-27T00:16:33;46.35;;;27.40;;
25905;SDS011;13713;52.552;13.204;2023-05-27T00:19:02;46.58;;;25.33;;
25905;SDS011;13713;52.552;13.204;2023-05-27T00:21:28;47.40;;;26.80;;
25905;SDS011;13713;52.552;13.204;2023-05-27T00:23:55;47.05;;;26.73;;
25905;SDS011;13713;52.552;13.204;2023-05-27T00:26:23;45.58;;;26.15;;
25905;SDS011;13713;52.552;13.204;2023-05-27T00:28:51;42.47;;;25.60;;
25905;SDS011;13713;52.552;13.204;2023-05-27T00:31:16;42.33;;;24.63;;
25905;SDS011;13713;52.552;13.204;2023-05-27T00:33:42;44.53;;;24.73;;
25905;SDS011;13713;52.552;13.204;2023-05-27T00:36:09;42.35;;;24.90;;
25905;SDS011;13713;52.552;13.204;2023-05-27T00:38:35;42.38;;;24.92;;
25905;SDS011;13713;52.552;13.204;2023-05-27T00:41:01;43.83;;;25.05;;
25905;SDS011;13713;52.552;13.204;2023-05-27T00:43:29;40.90;;;24.08;;
25905;SDS011;13713;52.552;13.204;2023-05-27T00:45:57;41.90;;;24.77;;
25905;SDS011;13713;52.552;13.204;2023-05-27T00:48:23;47.90;;;25.90;;
25905;SDS011;13713;52.552;13.204;2023-05-27T00:50:50;40.45;;;24.35;;
25905;SDS011;13713;52.552;13.204;2023-05-27T00:53:16;42.65;;;23.75;;
25905;SDS011;13713;52.552;13.204;2023-05-27T00:55:42;41.60;;;22.90;;
25905;SDS011;13713;52.552;13.204;2023-05-27T00:58:08;41.35;;;24.05;;
25905;SDS011;13713;52.552;13.204;2023-05-27T01:00:34;41.03;;;23.85;;
25905;SDS011;13713;52.552;13.204;2023-05-27T01:03:02;42.30;;;23.88;;
25905;SDS011;13713;52.552;13.204;2023-05-27T01:05:29;43.58;;;24.45;;
25905;SDS011;13713;52.552;13.204;2023-05-27T01:10:50;36.13;;;21.08;;
25905;SDS011;13713;52.552;13.204;2023-05-27T01:13:39;37.08;;;22.67;;
25905;SDS011;13713;52.552;13.204;2023-05-27T01:16:11;40.85;;;23.27;;
25905;SDS011;13713;52.552;13.204;2023-05-27T01:18:38;38.30;;;21.10;;
25905;SDS011;13713;52.552;13.204;2023-05-27T01:21:07;35.97;;;22.42;;
25905;SDS011;13713;52.552;13.204;2023-05-27T01:23:36;36.60;;;21.88;;
25905;SDS011;13713;52.552;13.204;2023-05-27T01:26:05;38.35;;;22.70;;
25905;SDS011;13713;52.552;13.204;2023-05-27T01:28:31;33.88;;;20.85;;
25905;SDS011;13713;52.552;13.204;2023-05-27T01:33:38;33.93;;;19.80;;
25905;SDS011;13713;52.552;13.204;2023-05-27T01:36:07;37.25;;;21.75;;
25905;SDS011;13713;52.552;13.204;2023-05-27T01:38:42;36.42;;;21.27;;
25905;SDS011;13713;52.552;13.204;2023-05-27T01:41:09;36.78;;;21.08;;
25905;SDS011;13713;52.552;13.204;2023-05-27T01:43:38;32.63;;;20.80;;
25905;SDS011;13713;52.552;13.204;2023-05-27T01:46:05;33.20;;;20.75;;
25905;SDS011;13713;52.552;13.204;2023-05-27T01:48:31;35.47;;;20.52;;
25905;SDS011;13713;52.552;13.204;2023-05-27T01:50:57;33.35;;;20.48;;
25905;SDS011;13713;52.552;13.204;2023-05-27T01:53:23;32.83;;;20.35;;
25905;SDS011;13713;52.552;13.204;2023-05-27T01:55:48;34.72;;;20.27;;
25905;SDS011;13713;52.552;13.204;2023-05-27T01:58:14;31.83;;;18.73;;
25905;SDS011;13713;52.552;13.204;2023-05-27T02:00:40;34.80;;;20.15;;
25905;SDS011;13713;52.552;13.204;2023-05-27T02:03:06;35.42;;;20.42;;
25905;SDS011;13713;52.552;13.204;2023-05-27T02:05:32;31.58;;;18.67;;
25905;SDS011;13713;52.552;13.204;2023-05-27T02:07:57;35.25;;;19.42;;
25905;SDS011;13713;52.552;13.204;2023-05-27T02:10:24;35.20;;;19.80;;
25905;SDS011;13713;52.552;13.204;2023-05-27T02:12:50;31.50;;;18.42;;
25905;SDS011;13713;52.552;13.204;2023-05-27T02:15:18;31.45;;;19.13;;
25905;SDS011;13713;52.552;13.204;2023-05-27T02:17:43;35.10;;;20.08;;
25905;SDS011;13713;52.552;13.204;2023-05-27T02:20:16;33.70;;;18.70;;
25905;SDS011;13713;52.552;13.204;2023-05-27T02:22:41;32.97;;;19.80;;
25905;SDS011;13713;52.552;13.204;2023-05-27T02:25:07;32.63;;;18.83;;
25905;SDS011;13713;52.552;13.204;2023-05-27T02:27:34;28.88;;;17.52;;
25905;SDS011;13713;52.552;13.204;2023-05-27T02:30:00;30.38;;;17.50;;
25905;SDS011;13713;52.552;13.204;2023-05-27T02:32:26;30.35;;;18.45;;
25905;SDS011;13713;52.552;13.204;2023-05-27T02:34:52;28.48;;;17.88;;
25905;SDS011;13713;52.552;13.204;2023-05-27T02:37:17;30.08;;;18.27;;
25905;SDS011;13713;52.552;13.204;2023-05-27T02:39:43;30.65;;;17.52;;
25905;SDS011;13713;52.552;13.204;2023-05-27T02:42:09;30.10;;;18.52;;
25905;SDS011;13713;52.552;13.204;2023-05-27T02:44:35;30.58;;;18.73;;
25905;SDS011;13713;52.552;13.204;2023-05-27T02:47:00;32.80;;;18.02;;
25905;SDS011;13713;52.552;13.204;2023-05-27T02:49:26;28.63;;;17.77;;
25905;SDS011;13713;52.552;13.204;2023-05-27T02:51:52;28.00;;;16.58;;
25905;SDS011;13713;52.552;13.204;2023-05-27T02:54:18;31.00;;;17.92;;
25905;SDS011;13713;52.552;13.204;2023-05-27T02:56:43;28.23;;;16.92;;
25905;SDS011;13713;52.552;13.204;2023-05-27T02:59:09;29.85;;;17.45;;
25905;SDS011;13713;52.552;13.204;2023-05-27T03:01:35;29.33;;;17.27;;
25905;SDS011;13713;52.552;13.204;2023-05-27T03:04:02;29.10;;;15.88;;
25905;SDS011;13713;52.552;13.204;2023-05-27T03:06:30;28.85;;;17.05;;
25905;SDS011;13713;52.552;13.204;2023-05-27T03:08:56;29.85;;;16.75;;
25905;SDS011;13713;52.552;13.204;2023-05-27T03:11:22;31.00;;;17.70;;
25905;SDS011;13713;52.552;13.204;2023-05-27T03:13:49;26.95;;;15.48;;
25905;SDS011;13713;52.552;13.204;2023-05-27T03:16:15;28.67;;;15.85;;
25905;SDS011;13713;52.552;13.204;2023-05-27T03:18:41;25.77;;;15.80;;
25905;SDS011;13713;52.552;13.204;2023-05-27T03:21:07;27.02;;;16.38;;
25905;SDS011;13713;52.552;13.204;2023-05-27T03:23:32;23.45;;;15.05;;
25905;SDS011;13713;52.552;13.204;2023-05-27T03:25:59;25.63;;;15.80;;
25905;SDS011;13713;52.552;13.204;2023-05-27T03:28:25;27.25;;;16.50;;
25905;SDS011;13713;52.552;13.204;2023-05-27T03:30:51;28.63;;;16.52;;
25905;SDS011;13713;52.552;13.204;2023-05-27T03:33:33;24.67;;;14.93;;
25905;SDS011;13713;52.552;13.204;2023-05-27T03:35:59;27.95;;;16.52;;
25905;SDS011;13713;52.552;13.204;2023-05-27T03:38:26;27.50;;;15.82;;
25905;SDS011;13713;52.552;13.204;2023-05-27T03:40:52;27.13;;;15.27;;
25905;SDS011;13713;52.552;13.204;2023-05-27T03:43:17;25.20;;;15.55;;
25905;SDS011;13713;52.552;13.204;2023-05-27T03:45:43;23.65;;;14.20;;
25905;SDS011;13713;52.552;13.204;2023-05-27T03:48:09;27.38;;;15.50;;
25905;SDS011;13713;52.552;13.204;2023-05-27T03:50:35;24.65;;;15.07;;
25905;SDS011;13713;52.552;13.204;2023-05-27T03:53:01;26.85;;;16.38;;
25905;SDS011;13713;52.552;13.204;2023-05-27T03:55:27;22.33;;;13.93;;
25905;SDS011;13713;52.552;13.204;2023-05-27T03:57:53;26.00;;;15.18;;
25905;SDS011;13713;52.552;13.204;2023-05-27T04:00:19;23.95;;;14.65;;
25905;SDS011;13713;52.552;13.204;2023-05-27T04:02:48;25.25;;;14.80;;
25905;SDS011;13713;52.552;13.204;2023-05-27T04:05:14;23.38;;;14.07;;
25905;SDS011;13713;52.552;13.204;2023-05-27T04:07:41;26.70;;;14.95;;
25905;SDS011;13713;52.552;13.204;2023-05-27T04:10:08;24.00;;;14.43;;
25905;SDS011;13713;52.552;13.204;2023-05-27T04:12:34;25.23;;;14.25;;
25905;SDS011;13713;52.552;13.204;2023-05-27T04:15:00;23.13;;;13.77;;
25905;SDS011;13713;52.552;13.204;2023-05-27T04:17:25;21.30;;;13.23;;
25905;SDS011;13713;52.552;13.204;2023-05-27T04:19:51;20.58;;;12.85;;
25905;SDS011;13713;52.552;13.204;2023-05-27T04:22:17;24.77;;;14.43;;
25905;SDS011;13713;52.552;13.204;2023-05-27T04:24:44;26.50;;;14.68;;
25905;SDS011;13713;52.552;13.204;2023-05-27T04:27:11;23.13;;;13.63;;
25905;SDS011;13713;52.552;13.204;2023-05-27T04:29:38;23.63;;;13.77;;
25905;SDS011;13713;52.552;13.204;2023-05-27T04:32:04;20.70;;;12.88;;
25905;SDS011;13713;52.552;13.204;2023-05-27T04:34:32;23.50;;;13.90;;
25905;SDS011;13713;52.552;13.204;2023-05-27T04:36:58;24.38;;;13.90;;
25905;SDS011;13713;52.552;13.204;2023-05-27T04:39:26;23.15;;;13.27;;
25905;SDS011;13713;52.552;13.204;2023-05-27T04:41:52;21.48;;;13.25;;
25905;SDS011;13713;52.552;13.204;2023-05-27T04:44:26;19.73;;;12.77;;
25905;SDS011;13713;52.552;13.204;2023-05-27T04:46:54;23.35;;;14.02;;
25905;SDS011;13713;52.552;13.204;2023-05-27T04:49:20;23.77;;;13.45;;
25905;SDS011;13713;52.552;13.204;2023-05-27T04:51:47;25.80;;;13.27;;
25905;SDS011;13713;52.552;13.204;2023-05-27T04:54:14;18.92;;;11.90;;
25905;SDS011;13713;52.552;13.204;2023-05-27T04:56:40;21.85;;;13.38;;
25905;SDS011;13713;52.552;13.204;2023-05-27T04:59:10;20.55;;;12.88;;
25905;SDS011;13713;52.552;13.204;2023-05-27T05:01:42;22.88;;;13.00;;
25905;SDS011;13713;52.552;13.204;2023-05-27T05:04:37;22.88;;;12.85;;
25905;SDS011;13713;52.552;13.204;2023-05-27T05:07:04;22.42;;;13.73;;
25905;SDS011;13713;52.552;13.204;2023-05-27T05:09:31;22.75;;;13.38;;
25905;SDS011;13713;52.552;13.204;2023-05-27T05:12:04;21.35;;;12.52;;
25905;SDS011;13713;52.552;13.204;2023-05-27T05:14:36;20.08;;;12.10;;
25905;SDS011;13713;52.552;13.204;2023-05-27T05:17:01;17.98;;;11.95;;
25905;SDS011;13713;52.552;13.204;2023-05-27T05:19:27;21.83;;;13.35;;
25905;SDS011;13713;52.552;13.204;2023-05-27T05:21:53;20.77;;;12.30;;
25905;SDS011;13713;52.552;13.204;2023-05-27T05:24:18;19.00;;;12.48;;
25905;SDS011;13713;52.552;13.204;2023-05-27T05:26:44;21.00;;;12.20;;
25905;SDS011;13713;52.552;13.204;2023-05-27T05:29:10;20.88;;;11.90;;
25905;SDS011;13713;52.552;13.204;2023-05-27T05:31:36;23.67;;;13.18;;
25905;SDS011;13713;52.552;13.204;2023-05-27T05:34:02;21.35;;;13.13;;
25905;SDS011;13713;52.552;13.204;2023-05-27T05:36:30;21.85;;;12.07;;
25905;SDS011;13713;52.552;13.204;2023-05-27T05:39:01;20.13;;;12.13;;
25905;SDS011;13713;52.552;13.204;2023-05-27T05:41:29;18.83;;;11.45;;
25905;SDS011;13713;52.552;13.204;2023-05-27T05:43:55;22.38;;;12.75;;
25905;SDS011;13713;52.552;13.204;2023-05-27T05:46:21;21.63;;;12.13;;
25905;SDS011;13713;52.552;13.204;2023-05-27T05:48:47;19.55;;;11.75;;
25905;SDS011;13713;52.552;13.204;2023-05-27T05:51:19;20.92;;;12.40;;
25905;SDS011;13713;52.552;13.204;2023-05-27T05:53:51;18.65;;;11.68;;
25905;SDS011;13713;52.552;13.204;2023-05-27T05:56:17;18.33;;;11.25;;
25905;SDS011;13713;52.552;13.204;2023-05-27T05:58:43;19.83;;;12.10;;
25905;SDS011;13713;52.552;13.204;2023-05-27T06:01:09;19.85;;;12.55;;
25905;SDS011;13713;52.552;13.204;2023-05-27T06:03:39;19.60;;;11.90;;
25905;SDS011;13713;52.552;13.204;2023-05-27T06:06:07;19.60;;;11.35;;
25905;SDS011;13713;52.552;13.204;2023-05-27T06:08:42;18.27;;;11.23;;
25905;SDS011;13713;52.552;13.204;2023-05-27T06:11:13;18.42;;;11.48;;
25905;SDS011;13713;52.552;13.204;2023-05-27T06:13:42;18.63;;;11.35;;
25905;SDS011;13713;52.552;13.204;2023-05-27T06:16:11;18.38;;;11.13;;
25905;SDS011;13713;52.552;13.204;2023-05-27T06:18:37;21.77;;;12.43;;
25905;SDS011;13713;52.552;13.204;2023-05-27T06:21:02;19.33;;;11.00;;
25905;SDS011;13713;52.552;13.204;2023-05-27T06:23:41;19.38;;;11.80;;
25905;SDS011;13713;52.552;13.204;2023-05-27T06:26:13;17.90;;;11.25;;
25905;SDS011;13713;52.552;13.204;2023-05-27T06:28:45;18.63;;;11.38;;
25905;SDS011;13713;52.552;13.204;2023-05-27T06:31:12;20.30;;;11.93;;
25905;SDS011;13713;52.552;13.204;2023-05-27T06:33:40;18.75;;;10.77;;
25905;SDS011;13713;52.552;13.204;2023-05-27T06:36:06;18.73;;;11.05;;
25905;SDS011;13713;52.552;13.204;2023-05-27T06:38:32;17.50;;;10.93;;
25905;SDS011;13713;52.552;13.204;2023-05-27T06:40:58;15.63;;;9.70;;
25905;SDS011;13713;52.552;13.204;2023-05-27T06:43:25;16.13;;;10.52;;
25905;SDS011;13713;52.552;13.204;2023-05-27T06:46:12;19.45;;;11.32;;
25905;SDS011;13713;52.552;13.204;2023-05-27T06:49:04;17.60;;;10.10;;
25905;SDS011;13713;52.552;13.204;2023-05-27T06:51:30;18.85;;;10.32;;
25905;SDS011;13713;52.552;13.204;2023-05-27T06:53:57;16.50;;;10.13;;
25905;SDS011;13713;52.552;13.204;2023-05-27T06:56:33;14.93;;;9.43;;
25905;SDS011;13713;52.552;13.204;2023-05-27T06:58:59;15.70;;;10.05;;
25905;SDS011;13713;52.552;13.204;2023-05-27T07:01:25;16.30;;;10.38;;
25905;SDS011;13713;52.552;13.204;2023-05-27T07:04:02;15.15;;;9.20;;
25905;SDS011;13713;52.552;13.204;2023-05-27T07:06:45;17.00;;;10.70;;
25905;SDS011;13713;52.552;13.204;2023-05-27T07:09:11;13.00;;;9.10;;
25905;SDS011;13713;52.552;13.204;2023-05-27T07:11:37;16.95;;;10.13;;
25905;SDS011;13713;52.552;13.204;2023-05-27T07:14:07;15.70;;;10.03;;
25905;SDS011;13713;52.552;13.204;2023-05-27T07:16:38;15.05;;;9.60;;
25905;SDS011;13713;52.552;13.204;2023-05-27T07:19:05;14.30;;;9.82;;
25905;SDS011;13713;52.552;13.204;2023-05-27T07:21:37;16.80;;;9.48;;
25905;SDS011;13713;52.552;13.204;2023-05-27T07:24:09;16.60;;;9.70;;
25905;SDS011;13713;52.552;13.204;2023-05-27T07:26:36;16.33;;;8.80;;
25905;SDS011;13713;52.552;13.204;2023-05-27T07:29:03;16.10;;;10.00;;
25905;SDS011;13713;52.552;13.204;2023-05-27T07:31:49;13.70;;;9.07;;
25905;SDS011;13713;52.552;13.204;2023-05-27T07:34:17;18.02;;;10.00;;
25905;SDS011;13713;52.552;13.204;2023-05-27T07:36:43;12.70;;;8.43;;
25905;SDS011;13713;52.552;13.204;2023-05-27T07:39:09;13.75;;;9.00;;
25905;SDS011;13713;52.552;13.204;2023-05-27T07:41:35;15.93;;;9.40;;
25905;SDS011;13713;52.552;13.204;2023-05-27T07:44:02;14.20;;;8.35;;
25905;SDS011;13713;52.552;13.204;2023-05-27T07:46:28;15.18;;;9.07;;
25905;SDS011;13713;52.552;13.204;2023-05-27T07:48:55;12.60;;;8.55;;
25905;SDS011;13713;52.552;13.204;2023-05-27T07:51:22;13.82;;;9.05;;
25905;SDS011;13713;52.552;13.204;2023-05-27T07:53:49;15.23;;;9.25;;
25905;SDS011;13713;52.552;13.204;2023-05-27T07:56:16;15.82;;;9.45;;
25905;SDS011;13713;52.552;13.204;2023-05-27T07:58:42;15.13;;;8.88;;
25905;SDS011;13713;52.552;13.204;2023-05-27T08:01:10;14.00;;;8.43;;
25905;SDS011;13713;52.552;13.204;2023-05-27T08:03:37;14.38;;;9.10;;
25905;SDS011;13713;52.552;13.204;2023-05-27T08:06:23;12.80;;;8.43;;
25905;SDS011;13713;52.552;13.204;2023-05-27T08:08:51;12.43;;;7.72;;
25905;SDS011;13713;52.552;13.204;2023-05-27T08:11:17;12.60;;;8.52;;
25905;SDS011;13713;52.552;13.204;2023-05-27T08:14:01;14.18;;;7.93;;
25905;SDS011;13713;52.552;13.204;2023-05-27T08:16:42;12.85;;;7.85;;
25905;SDS011;13713;52.552;13.204;2023-05-27T08:19:27;12.95;;;8.80;;
25905;SDS011;13713;52.552;13.204;2023-05-27T08:21:59;11.95;;;7.82;;
25905;SDS011;13713;52.552;13.204;2023-05-27T08:24:42;12.98;;;8.57;;
25905;SDS011;13713;52.552;13.204;2023-05-27T08:27:19;11.90;;;8.00;;
25905;SDS011;13713;52.552;13.204;2023-05-27T08:30:12;14.13;;;8.13;;
25905;SDS011;13713;52.552;13.204;2023-05-27T08:32:49;11.98;;;8.02;;
25905;SDS011;13713;52.552;13.204;2023-05-27T08:35:16;13.68;;;8.77;;
25905;SDS011;13713;52.552;13.204;2023-05-27T08:37:42;13.02;;;7.95;;
25905;SDS011;13713;52.552;13.204;2023-05-27T08:40:10;13.52;;;8.05;;
25905;SDS011;13713;52.552;13.204;2023-05-27T08:42:41;12.07;;;7.80;;
25905;SDS011;13713;52.552;13.204;2023-05-27T08:45:09;11.77;;;7.68;;
25905;SDS011;13713;52.552;13.204;2023-05-27T08:47:35;13.50;;;7.95;;
25905;SDS011;13713;52.552;13.204;2023-05-27T08:50:04;13.05;;;8.25;;
25905;SDS011;13713;52.552;13.204;2023-05-27T08:52:31;12.50;;;8.40;;
25905;SDS011;13713;52.552;13.204;2023-05-27T08:54:57;12.80;;;7.93;;
25905;SDS011;13713;52.552;13.204;2023-05-27T08:57:28;11.32;;;6.93;;
25905;SDS011;13713;52.552;13.204;2023-05-27T08:59:55;11.97;;;7.73;;
25905;SDS011;13713;52.552;13.204;2023-05-27T09:02:21;11.65;;;7.90;;
25905;SDS011;13713;52.552;13.204;2023-05-27T09:04:49;13.13;;;7.90;;
25905;SDS011;13713;52.552;13.204;2023-05-27T09:07:16;11.82;;;7.75;;
25905;SDS011;13713;52.552;13.204;2023-05-27T09:09:42;13.05;;;7.97;;
25905;SDS011;13713;52.552;13.204;2023-05-27T09:12:22;12.00;;;7.82;;
25905;SDS011;13713;52.552;13.204;2023-05-27T09:14:49;10.38;;;6.43;;
25905;SDS011;13713;52.552;13.204;2023-05-27T09:17:15;13.02;;;7.68;;
25905;SDS011;13713;52.552;13.204;2023-05-27T09:19:41;10.50;;;7.35;;
25905;SDS011;13713;52.552;13.204;2023-05-27T09:22:06;10.90;;;7.13;;
25905;SDS011;13713;52.552;13.204;2023-05-27T09:24:32;12.55;;;7.93;;
25905;SDS011;13713;52.552;13.204;2023-05-27T09:26:58;10.68;;;7.18;;
25905;SDS011;13713;52.552;13.204;2023-05-27T09:29:24;11.68;;;7.60;;
25905;SDS011;13713;52.552;13.204;2023-05-27T09:31:54;10.48;;;7.13;;
25905;SDS011;13713;52.552;13.204;2023-05-27T09:34:23;11.52;;;7.13;;
25905;SDS011;13713;52.552;13.204;2023-05-27T09:36:49;11.02;;;6.80;;
25905;SDS011;13713;52.552;13.204;2023-05-27T09:39:19;11.75;;;7.25;;
25905;SDS011;13713;52.552;13.204;2023-05-27T09:41:50;9.90;;;6.35;;
25905;SDS011;13713;52.552;13.204;2023-05-27T09:44:18;12.55;;;7.53;;
25905;SDS011;13713;52.552;13.204;2023-05-27T09:46:44;8.88;;;6.00;;
25905;SDS011;13713;52.552;13.204;2023-05-27T09:49:13;9.45;;;6.35;;
25905;SDS011;13713;52.552;13.204;2023-05-27T09:51:43;10.25;;;7.13;;
25905;SDS011;13713;52.552;13.204;2023-05-27T09:54:11;11.50;;;6.63;;
25905;SDS011;13713;52.552;13.204;2023-05-27T09:56:45;11.73;;;6.93;;
25905;SDS011;13713;52.552;13.204;2023-05-27T09:59:12;10.20;;;6.97;;
25905;SDS011;13713;52.552;13.204;2023-05-27T10:01:38;11.05;;;7.40;;
25905;SDS011;13713;52.552;13.204;2023-05-27T10:04:06;10.73;;;7.15;;
25905;SDS011;13713;52.552;13.204;2023-05-27T10:06:32;10.80;;;7.00;;
25905;SDS011;13713;52.552;13.204;2023-05-27T10:09:00;10.02;;;6.43;;
25905;SDS011;13713;52.552;13.204;2023-05-27T10:11:31;10.75;;;6.28;;
25905;SDS011;13713;52.552;13.204;2023-05-27T10:14:00;10.50;;;6.63;;
25905;SDS011;13713;52.552;13.204;2023-05-27T10:16:27;11.13;;;7.13;;
25905;SDS011;13713;52.552;13.204;2023-05-27T10:18:53;9.93;;;6.75;;
25905;SDS011;13713;52.552;13.204;2023-05-27T10:21:20;10.40;;;6.82;;
25905;SDS011;13713;52.552;13.204;2023-05-27T10:24:00;9.77;;;6.15;;
25905;SDS011;13713;52.552;13.204;2023-05-27T10:29:05;9.70;;;6.05;;
25905;SDS011;13713;52.552;13.204;2023-05-27T10:31:32;8.23;;;6.15;;
25905;SDS011;13713;52.552;13.204;2023-05-27T10:33:58;9.95;;;6.22;;
25905;SDS011;13713;52.552;13.204;2023-05-27T10:36:25;10.10;;;6.25;;
25905;SDS011;13713;52.552;13.204;2023-05-27T10:44:29;11.05;;;6.47;;
25905;SDS011;13713;52.552;13.204;2023-05-27T10:46:59;11.80;;;6.30;;
25905;SDS011;13713;52.552;13.204;2023-05-27T10:49:33;9.20;;;6.43;;
25905;SDS011;13713;52.552;13.204;2023-05-27T10:52:06;11.73;;;6.82;;
25905;SDS011;13713;52.552;13.204;2023-05-27T10:54:43;11.18;;;6.70;;
25905;SDS011;13713;52.552;13.204;2023-05-27T10:57:12;9.73;;;6.10;;
25905;SDS011;13713;52.552;13.204;2023-05-27T10:59:51;7.90;;;5.80;;
25905;SDS011;13713;52.552;13.204;2023-05-27T11:02:18;8.52;;;5.93;;
25905;SDS011;13713;52.552;13.204;2023-05-27T11:04:44;11.05;;;6.47;;
25905;SDS011;13713;52.552;13.204;2023-05-27T11:07:10;8.15;;;5.93;;
25905;SDS011;13713;52.552;13.204;2023-05-27T11:09:44;8.65;;;5.63;;
25905;SDS011;13713;52.552;13.204;2023-05-27T11:12:12;9.00;;;5.95;;
25905;SDS011;13713;52.552;13.204;2023-05-27T11:14:42;8.38;;;5.50;;
25905;SDS011;13713;52.552;13.204;2023-05-27T11:17:13;7.38;;;5.20;;
25905;SDS011;13713;52.552;13.204;2023-05-27T11:19:39;9.73;;;6.03;;
25905;SDS011;13713;52.552;13.204;2023-05-27T11:22:06;8.57;;;5.63;;
25905;SDS011;13713;52.552;13.204;2023-05-27T11:24:32;8.75;;;5.65;;
25905;SDS011;13713;52.552;13.204;2023-05-27T11:26:58;9.20;;;6.18;;
25905;SDS011;13713;52.552;13.204;2023-05-27T11:29:24;8.07;;;5.47;;
25905;SDS011;13713;52.552;13.204;2023-05-27T11:31:52;8.73;;;5.95;;
25905;SDS011;13713;52.552;13.204;2023-05-27T11:34:18;10.48;;;6.55;;
25905;SDS011;13713;52.552;13.204;2023-05-27T11:36:47;7.63;;;5.53;;
25905;SDS011;13713;52.552;13.204;2023-05-27T11:39:14;8.18;;;5.53;;
25905;SDS011;13713;52.552;13.204;2023-05-27T11:41:49;10.80;;;6.28;;
25905;SDS011;13713;52.552;13.204;2023-05-27T11:44:17;8.02;;;5.47;;
25905;SDS011;13713;52.552;13.204;2023-05-27T11:46:44;8.90;;;5.78;;
25905;SDS011;13713;52.552;13.204;2023-05-27T11:49:13;7.75;;;5.40;;
25905;SDS011;13713;52.552;13.204;2023-05-27T11:51:41;7.65;;;5.50;;
25905;SDS011;13713;52.552;13.204;2023-05-27T11:56:46;11.35;;;5.75;;
25905;SDS011;13713;52.552;13.204;2023-05-27T11:59:12;8.13;;;5.30;;
25905;SDS011;13713;52.552;13.204;2023-05-27T12:01:39;8.38;;;5.57;;
25905;SDS011;13713;52.552;13.204;2023-05-27T12:04:05;9.88;;;6.10;;
25905;SDS011;13713;52.552;13.204;2023-05-27T12:06:31;8.48;;;5.57;;
25905;SDS011;13713;52.552;13.204;2023-05-27T12:08:57;8.30;;;5.32;;
25905;SDS011;13713;52.552;13.204;2023-05-27T12:11:23;7.05;;;5.13;;
25905;SDS011;13713;52.552;13.204;2023-05-27T12:13:48;8.68;;;5.65;;
25905;SDS011;13713;52.552;13.204;2023-05-27T12:16:16;7.35;;;5.32;;
25905;SDS011;13713;52.552;13.204;2023-05-27T12:18:41;8.60;;;5.72;;
25905;SDS011;13713;52.552;13.204;2023-05-27T12:21:07;7.60;;;5.20;;
25905;SDS011;13713;52.552;13.204;2023-05-27T12:23:33;9.38;;;5.97;;
25905;SDS011;13713;52.552;13.204;2023-05-27T12:25:59;6.85;;;4.95;;
25905;SDS011;13713;52.552;13.204;2023-05-27T12:28:25;8.77;;;6.63;;
25905;SDS011;13713;52.552;13.204;2023-05-27T12:30:51;7.38;;;5.28;;
25905;SDS011;13713;52.552;13.204;2023-05-27T12:33:16;7.80;;;4.95;;
25905;SDS011;13713;52.552;13.204;2023-05-27T12:35:42;7.93;;;5.40;;
25905;SDS011;13713;52.552;13.204;2023-05-27T12:38:08;7.78;;;5.68;;
25905;SDS011;13713;52.552;13.204;2023-05-27T12:40:35;8.90;;;5.53;;
25905;SDS011;13713;52.552;13.204;2023-05-27T12:43:01;8.05;;;5.65;;
25905;SDS011;13713;52.552;13.204;2023-05-27T12:45:29;7.00;;;5.28;;
25905;SDS011;13713;52.552;13.204;2023-05-27T12:47:55;7.93;;;5.38;;
25905;SDS011;13713;52.552;13.204;2023-05-27T12:50:21;8.07;;;5.13;;
25905;SDS011;13713;52.552;13.204;2023-05-27T12:52:48;8.68;;;5.30;;
25905;SDS011;13713;52.552;13.204;2023-05-27T12:55:15;7.68;;;5.32;;
25905;SDS011;13713;52.552;13.204;2023-05-27T12:57:49;7.22;;;5.03;;
25905;SDS011;13713;52.552;13.204;2023-05-27T13:00:16;7.47;;;4.75;;
25905;SDS011;13713;52.552;13.204;2023-05-27T13:02:43;7.00;;;5.22;;
25905;SDS011;13713;52.552;13.204;2023-05-27T13:05:10;6.45;;;4.60;;
25905;SDS011;13713;52.552;13.204;2023-05-27T13:07:36;8.07;;;5.55;;
25905;SDS011;13713;52.552;13.204;2023-05-27T13:10:11;7.32;;;4.88;;
25905;SDS011;13713;52.552;13.204;2023-05-27T13:12:39;7.05;;;5.25;;
25905;SDS011;13713;52.552;13.204;2023-05-27T13:15:05;7.30;;;4.90;;
25905;SDS011;13713;52.552;13.204;2023-05-27T13:17:33;8.60;;;5.43;;
25905;SDS011;13713;52.552;13.204;2023-05-27T13:19:59;7.20;;;5.20;;
25905;SDS011;13713;52.552;13.204;2023-05-27T13:22:24;9.23;;;5.40;;
25905;SDS011;13713;52.552;13.204;2023-05-27T13:24:50;8.18;;;4.75;;
25905;SDS011;13713;52.552;13.204;2023-05-27T13:27:16;7.70;;;5.30;;
25905;SDS011;13713;52.552;13.204;2023-05-27T13:29:42;8.27;;;5.13;;
25905;SDS011;13713;52.552;13.204;2023-05-27T13:32:08;7.75;;;5.00;;
25905;SDS011;13713;52.552;13.204;2023-05-27T13:34:33;7.57;;;5.65;;
25905;SDS011;13713;52.552;13.204;2023-05-27T13:36:59;7.57;;;5.13;;
25905;SDS011;13713;52.552;13.204;2023-05-27T13:39:27;6.65;;;4.82;;
25905;SDS011;13713;52.552;13.204;2023-05-27T13:41:54;7.65;;;4.95;;
25905;SDS011;13713;52.552;13.204;2023-05-27T13:44:20;8.13;;;5.25;;
25905;SDS011;13713;52.552;13.204;2023-05-27T13:46:45;7.93;;;5.43;;
25905;SDS011;13713;52.552;13.204;2023-05-27T13:49:11;9.10;;;4.85;;
25905;SDS011;13713;52.552;13.204;2023-05-27T13:51:43;7.35;;;4.93;;
25905;SDS011;13713;52.552;13.204;2023-05-27T13:54:10;8.55;;;5.10;;
25905;SDS011;13713;52.552;13.204;2023-05-27T13:56:36;7.22;;;4.72;;
25905;SDS011;13713;52.552;13.204;2023-05-27T13:59:01;6.63;;;4.97;;
25905;SDS011;13713;52.552;13.204;2023-05-27T14:01:28;7.13;;;5.07;;
25905;SDS011;13713;52.552;13.204;2023-05-27T14:03:54;6.97;;;5.10;;
25905;SDS011;13713;52.552;13.204;2023-05-27T14:06:20;6.90;;;4.88;;
25905;SDS011;13713;52.552;13.204;2023-05-27T14:08:46;7.18;;;4.88;;
25905;SDS011;13713;52.552;13.204;2023-05-27T14:11:12;8.45;;;5.40;;
25905;SDS011;13713;52.552;13.204;2023-05-27T14:13:37;5.88;;;4.40;;
25905;SDS011;13713;52.552;13.204;2023-05-27T14:16:03;7.45;;;4.68;;
25905;SDS011;13713;52.552;13.204;2023-05-27T14:18:30;7.32;;;5.30;;
25905;SDS011;13713;52.552;13.204;2023-05-27T14:20:55;7.60;;;5.07;;
25905;SDS011;13713;52.552;13.204;2023-05-27T14:23:21;6.38;;;4.72;;
25905;SDS011;13713;52.552;13.204;2023-05-27T14:25:47;6.45;;;4.72;;
25905;SDS011;13713;52.552;13.204;2023-05-27T14:28:12;7.38;;;4.88;;
25905;SDS011;13713;52.552;13.204;2023-05-27T14:30:38;6.53;;;5.03;;
25905;SDS011;13713;52.552;13.204;2023-05-27T14:33:04;6.88;;;4.78;;
25905;SDS011;13713;52.552;13.204;2023-05-27T14:35:36;7.13;;;4.65;;
25905;SDS011;13713;52.552;13.204;2023-05-27T14:38:02;8.30;;;5.32;;
25905;SDS011;13713;52.552;13.204;2023-05-27T14:40:29;6.95;;;4.57;;